createdAt,value
2018-03-07T00:01:40.496Z,6.60
2018-03-07T00:04:08.102Z,6.30
2018-03-07T00:06:35.746Z,6.67
2018-03-07T00:09:03.451Z,5.90
2018-03-07T00:11:31.118Z,5.97
2018-03-07T00:13:58.896Z,6.03
2018-03-07T00:16:26.423Z,6.33
2018-03-07T00:18:53.936Z,5.87
2018-03-07T00:21:21.434Z,5.97
2018-03-07T00:23:49.766Z,6.07
2018-03-07T00:26:17.281Z,5.80
2018-03-07T00:28:44.802Z,6.03
2018-03-07T00:31:12.351Z,6.23
2018-03-07T00:33:40.187Z,6.70
2018-03-07T00:36:07.857Z,5.97
2018-03-07T00:38:35.412Z,6.00
2018-03-07T00:41:03.242Z,6.07
2018-03-07T00:43:31.144Z,5.67
2018-03-07T00:45:58.878Z,5.90
2018-03-07T00:48:27.971Z,6.30
2018-03-07T00:50:56.237Z,6.13
2018-03-07T00:53:23.770Z,6.10
2018-03-07T00:55:51.253Z,6.17
2018-03-07T00:58:19.533Z,5.53
2018-03-07T01:00:47.029Z,6.80
2018-03-07T01:03:14.545Z,6.10
2018-03-07T01:05:42.094Z,6.00
2018-03-07T01:08:09.919Z,6.40
2018-03-07T01:10:37.595Z,6.57
2018-03-07T01:13:05.481Z,6.13
2018-03-07T01:15:33.418Z,6.30
2018-03-07T01:18:01.998Z,6.43
2018-03-07T01:20:30.074Z,6.43
2018-03-07T01:22:57.607Z,6.53
2018-03-07T01:25:25.861Z,5.77
2018-03-07T01:27:53.365Z,6.17
2018-03-07T01:30:20.858Z,6.23
2018-03-07T01:32:48.389Z,6.73
2018-03-07T01:35:15.901Z,6.00
2018-03-07T01:37:44.013Z,6.73
2018-03-07T01:40:11.563Z,6.53
2018-03-07T01:42:39.091Z,6.50
2018-03-07T01:45:06.710Z,6.50
2018-03-07T01:47:34.471Z,6.43
2018-03-07T01:50:02.365Z,6.57
2018-03-07T01:52:30.329Z,6.27
2018-03-07T01:54:57.849Z,6.47
2018-03-07T01:57:25.413Z,6.80
2018-03-07T01:59:52.910Z,6.73
2018-03-07T02:02:20.480Z,6.60
2018-03-07T02:04:47.994Z,6.57
2018-03-07T02:07:15.540Z,7.27
2018-03-07T02:09:43.120Z,6.40
2018-03-07T02:12:10.886Z,6.70
2018-03-07T02:14:39.376Z,6.50
2018-03-07T02:17:08.214Z,6.20
2018-03-07T02:19:36.805Z,6.33
2018-03-07T02:22:04.823Z,6.13
2018-03-07T02:24:33.508Z,6.17
2018-03-07T02:27:01.885Z,6.03
2018-03-07T02:29:31.464Z,6.33
2018-03-07T02:31:59.360Z,6.20
2018-03-07T02:34:26.877Z,5.93
2018-03-07T02:36:55.145Z,6.13
2018-03-07T02:39:23.405Z,6.37
2018-03-07T02:41:50.981Z,6.27
2018-03-07T02:44:18.474Z,6.30
2018-03-07T02:46:45.990Z,6.67
2018-03-07T02:49:13.634Z,5.97
2018-03-07T02:51:41.606Z,6.20
2018-03-07T02:54:09.389Z,6.60
2018-03-07T02:56:38.063Z,6.10
2018-03-07T02:59:05.721Z,6.43
2018-03-07T03:01:33.967Z,6.40
2018-03-07T03:04:01.911Z,6.40
2018-03-07T03:06:32.049Z,7.33
2018-03-07T03:09:01.215Z,7.17
2018-03-07T03:11:29.127Z,6.97
2018-03-07T03:13:57.472Z,6.70
2018-03-07T03:16:26.485Z,7.13
2018-03-07T03:18:53.983Z,7.23
2018-03-07T03:21:21.470Z,7.10
2018-03-07T03:23:48.980Z,7.40
2018-03-07T03:26:16.465Z,7.10
2018-03-07T03:28:44.081Z,7.03
2018-03-07T03:31:11.680Z,7.20
2018-03-07T03:33:39.473Z,6.87
2018-03-07T03:36:07.278Z,6.87
2018-03-07T03:38:35.914Z,7.70
2018-03-07T03:41:03.951Z,8.13
2018-03-07T03:43:32.308Z,7.70
2018-03-07T03:46:01.202Z,7.57
2018-03-07T03:48:31.429Z,7.83
2018-03-07T03:51:00.727Z,7.53
2018-03-07T03:53:30.054Z,8.03
2018-03-07T03:55:58.510Z,7.53
2018-03-07T03:58:26.190Z,7.83
2018-03-07T04:00:53.740Z,7.50
2018-03-07T04:03:21.227Z,7.10
2018-03-07T04:05:48.771Z,7.33
2018-03-07T04:08:16.307Z,6.83
2018-03-07T04:10:43.926Z,6.73
2018-03-07T04:13:12.302Z,6.87
2018-03-07T04:15:39.981Z,6.67
2018-03-07T04:18:07.988Z,6.90
2018-03-07T04:20:35.864Z,5.97
2018-03-07T04:23:04.026Z,6.27
2018-03-07T04:25:32.006Z,6.53
2018-03-07T04:28:01.551Z,6.73
2018-03-07T04:30:29.187Z,6.20
2018-03-07T04:32:56.723Z,6.20
2018-03-07T04:35:24.278Z,6.50
2018-03-07T04:37:51.770Z,6.60
2018-03-07T04:40:19.308Z,5.53
2018-03-07T04:42:47.074Z,6.57
2018-03-07T04:45:14.581Z,6.87
2018-03-07T04:47:42.153Z,6.60
2018-03-07T04:50:11.074Z,6.70
2018-03-07T04:52:38.843Z,7.40
2018-03-07T04:55:06.531Z,6.87
2018-03-07T04:57:34.571Z,7.03
2018-03-07T05:00:02.855Z,7.33
2018-03-07T05:02:32.195Z,7.13
2018-03-07T05:05:01.570Z,7.90
2018-03-07T05:07:29.936Z,7.50
2018-03-07T05:09:58.522Z,7.40
2018-03-07T05:12:26.089Z,8.23
2018-03-07T05:14:53.613Z,8.17
2018-03-07T05:17:22.487Z,7.60
2018-03-07T05:19:49.989Z,7.87
2018-03-07T05:22:17.535Z,8.63
2018-03-07T05:24:45.040Z,7.73
2018-03-07T05:27:12.996Z,8.03
2018-03-07T05:29:40.712Z,7.77
2018-03-07T05:32:08.423Z,7.53
2018-03-07T05:34:36.162Z,8.17
2018-03-07T05:37:04.706Z,7.47
2018-03-07T05:39:32.824Z,7.93
2018-03-07T05:42:02.200Z,8.23
2018-03-07T05:44:30.097Z,7.97
2018-03-07T05:46:57.627Z,8.23
2018-03-07T05:49:25.905Z,8.80
2018-03-07T05:51:54.383Z,8.83
2018-03-07T05:54:22.791Z,8.40
2018-03-07T05:56:50.558Z,8.97
2018-03-07T05:59:18.397Z,8.00
2018-03-07T06:01:46.293Z,9.30
2018-03-07T06:04:14.157Z,8.53
2018-03-07T06:06:41.922Z,9.67
2018-03-07T06:09:10.357Z,9.70
2018-03-07T06:11:39.184Z,10.87
2018-03-07T06:14:06.685Z,9.67
2018-03-07T06:16:34.185Z,9.73
2018-03-07T06:19:02.484Z,10.17
2018-03-07T06:21:29.976Z,10.07
2018-03-07T06:23:57.493Z,10.37
2018-03-07T06:26:25.114Z,8.93
2018-03-07T06:28:52.648Z,9.53
2018-03-07T06:31:20.258Z,8.73
2018-03-07T06:33:48.584Z,7.93
2018-03-07T06:36:16.697Z,8.47
2018-03-07T06:38:45.346Z,7.87
2018-03-07T06:41:13.562Z,7.97
2018-03-07T06:43:41.334Z,8.03
2018-03-07T06:46:08.760Z,7.70
2018-03-07T06:48:36.332Z,7.27
2018-03-07T06:51:03.915Z,7.53
2018-03-07T06:53:32.333Z,8.20
2018-03-07T06:56:00.325Z,7.50
2018-03-07T06:58:28.061Z,7.70
2018-03-07T07:00:56.040Z,6.80
2018-03-07T07:03:24.014Z,7.50
2018-03-07T07:05:53.304Z,7.37
2018-03-07T07:08:22.226Z,6.97
2018-03-07T07:10:50.526Z,8.27
2018-03-07T07:13:19.362Z,7.63
2018-03-07T07:15:47.163Z,7.60
2018-03-07T07:18:15.235Z,7.03
2018-03-07T07:20:42.756Z,7.37
2018-03-07T07:23:10.252Z,7.80
2018-03-07T07:25:37.770Z,8.07
2018-03-07T07:28:05.273Z,7.33
2018-03-07T07:30:33.138Z,7.83
2018-03-07T07:33:00.885Z,7.37
2018-03-07T07:35:28.595Z,8.13
2018-03-07T07:37:56.800Z,8.43
2018-03-07T07:40:25.579Z,8.00
2018-03-07T07:42:53.533Z,8.50
2018-03-07T07:45:22.337Z,8.77
2018-03-07T07:47:50.439Z,9.60
2018-03-07T07:50:17.985Z,9.17
2018-03-07T07:52:46.124Z,9.70
2018-03-07T07:55:13.914Z,9.83
2018-03-07T07:57:43.033Z,10.80
2018-03-07T08:00:10.804Z,10.10
2018-03-07T08:02:38.428Z,9.53
2018-03-07T08:05:05.941Z,10.37
2018-03-07T08:07:33.444Z,10.60
2018-03-07T08:10:01.438Z,11.00
2018-03-07T08:12:29.237Z,11.07
2018-03-07T08:14:56.901Z,11.53
2018-03-07T08:17:25.581Z,11.30
2018-03-07T08:19:54.029Z,11.93
2018-03-07T08:22:21.616Z,10.80
2018-03-07T08:24:49.957Z,11.50
2018-03-07T08:27:17.776Z,11.33
2018-03-07T08:29:45.925Z,11.77
2018-03-07T08:32:14.450Z,11.37
2018-03-07T08:34:42.749Z,11.23
2018-03-07T08:37:10.317Z,11.47
2018-03-07T08:39:37.841Z,12.27
2018-03-07T08:42:05.368Z,12.90
2018-03-07T08:44:32.907Z,11.27
2018-03-07T08:47:00.797Z,12.63
2018-03-07T08:49:28.371Z,13.27
2018-03-07T08:51:56.305Z,11.20
2018-03-07T08:54:25.889Z,11.83
2018-03-07T08:56:53.781Z,12.37
2018-03-07T08:59:21.359Z,11.53
2018-03-07T09:01:49.095Z,11.57
2018-03-07T09:04:16.606Z,12.53
2018-03-07T09:06:44.578Z,11.93
2018-03-07T09:09:12.161Z,12.07
2018-03-07T09:11:41.041Z,12.27
2018-03-07T09:14:09.489Z,13.30
2018-03-07T09:16:37.219Z,10.03
2018-03-07T09:19:07.366Z,10.87
2018-03-07T09:21:34.950Z,10.47
2018-03-07T09:24:02.503Z,10.17
2018-03-07T09:26:30.115Z,9.97
2018-03-07T09:28:58.119Z,20.60
2018-03-07T09:31:26.378Z,14.80
2018-03-07T09:33:54.450Z,10.80
2018-03-07T09:36:23.237Z,10.30
2018-03-07T09:38:50.778Z,12.80
2018-03-07T09:41:18.295Z,11.03
2018-03-07T09:43:46.120Z,11.20
2018-03-07T09:46:14.060Z,12.43
2018-03-07T09:48:42.461Z,13.03
2018-03-07T09:51:10.026Z,12.30
2018-03-07T09:53:37.536Z,13.07
2018-03-07T09:56:05.070Z,11.80
2018-03-07T09:58:32.621Z,12.10
2018-03-07T10:01:00.364Z,12.13
2018-03-07T10:03:28.245Z,11.70
2018-03-07T10:05:56.088Z,8.40
2018-03-07T10:08:23.769Z,8.50
2018-03-07T10:10:51.845Z,9.27
2018-03-07T10:13:19.392Z,8.93
2018-03-07T10:15:47.513Z,9.13
2018-03-07T10:18:15.185Z,9.80
2018-03-07T10:20:42.687Z,8.20
2018-03-07T10:23:10.261Z,8.00
2018-03-07T10:25:38.290Z,7.87
2018-03-07T10:28:05.792Z,7.90
2018-03-07T10:30:33.280Z,7.60
2018-03-07T10:33:00.958Z,6.43
2018-03-07T10:35:28.538Z,5.97
2018-03-07T10:37:56.318Z,5.43
2018-03-07T10:40:24.145Z,3.30
2018-03-07T10:42:53.911Z,2.97
2018-03-07T10:45:21.466Z,3.23
2018-03-07T10:47:48.970Z,3.00
2018-03-07T10:50:16.592Z,3.33
2018-03-07T10:52:44.102Z,3.13
2018-03-07T10:55:12.350Z,3.00
2018-03-07T10:57:39.852Z,3.60
2018-03-07T11:00:08.134Z,3.83
2018-03-07T11:02:36.411Z,3.57
2018-03-07T11:05:04.656Z,3.63
2018-03-07T11:07:32.205Z,3.90
2018-03-07T11:09:59.837Z,3.20
2018-03-07T11:12:27.370Z,3.80
2018-03-07T11:14:55.652Z,4.23
2018-03-07T11:17:23.209Z,4.63
2018-03-07T11:19:50.722Z,4.67
2018-03-07T11:22:18.206Z,3.67
2018-03-07T11:24:45.722Z,4.70
2018-03-07T11:27:13.211Z,4.63
2018-03-07T11:29:40.704Z,3.90
2018-03-07T11:32:08.974Z,3.73
2018-03-07T11:34:37.449Z,3.27
2018-03-07T11:37:05.729Z,3.13
2018-03-07T11:39:33.511Z,3.47
2018-03-07T11:42:01.043Z,3.50
2018-03-07T11:44:28.692Z,3.40
2018-03-07T11:46:56.214Z,3.70
2018-03-07T11:49:25.070Z,2.70
2018-03-07T11:51:52.802Z,2.73
2018-03-07T11:54:21.515Z,2.77
2018-03-07T11:56:49.767Z,2.70
2018-03-07T11:59:17.264Z,2.73
2018-03-07T12:01:45.525Z,2.53
2018-03-07T12:04:13.801Z,2.60
2018-03-07T12:06:41.300Z,3.00
2018-03-07T12:09:08.853Z,2.70
2018-03-07T12:11:36.384Z,2.53
2018-03-07T12:14:04.102Z,2.30
2018-03-07T12:16:31.605Z,2.30
2018-03-07T12:19:00.150Z,1.83
2018-03-07T12:21:28.541Z,2.20
2018-03-07T12:23:56.516Z,2.10
2018-03-07T12:26:24.131Z,2.63
2018-03-07T12:28:51.730Z,2.67
2018-03-07T12:31:19.215Z,2.00
2018-03-07T12:33:47.484Z,2.30
2018-03-07T12:36:15.087Z,2.00
2018-03-07T12:38:42.597Z,2.70
2018-03-07T12:41:10.094Z,2.10
2018-03-07T12:43:37.631Z,2.20
2018-03-07T12:46:05.907Z,2.40
2018-03-07T12:48:34.163Z,2.37
2018-03-07T12:51:02.439Z,2.30
2018-03-07T12:53:29.956Z,1.80
2018-03-07T12:55:57.454Z,1.67
2018-03-07T12:58:24.965Z,2.03
2018-03-07T13:00:52.497Z,1.50
2018-03-07T13:03:21.074Z,1.53
2018-03-07T13:05:48.748Z,1.93
2018-03-07T13:08:17.474Z,1.87
2018-03-07T13:10:45.128Z,2.10
2018-03-07T13:13:12.667Z,2.00
2018-03-07T13:15:40.401Z,3.57
2018-03-07T13:18:07.908Z,2.80
2018-03-07T13:20:35.409Z,8.27
2018-03-07T13:23:02.917Z,5.93
2018-03-07T13:25:30.403Z,5.07
2018-03-07T13:27:57.911Z,3.27
2018-03-07T13:30:26.427Z,10.33
2018-03-07T13:32:54.261Z,7.10
2018-03-07T13:35:22.059Z,3.37
2018-03-07T13:37:49.975Z,2.50
2018-03-07T13:40:18.324Z,1.80
2018-03-07T13:42:46.005Z,6.23
2018-03-07T13:45:13.724Z,2.07
2018-03-07T13:47:41.268Z,5.33
2018-03-07T13:50:09.579Z,1.90
2018-03-07T13:52:37.068Z,3.83
2018-03-07T13:55:04.591Z,4.20
2018-03-07T13:57:32.301Z,2.27
2018-03-07T13:59:59.911Z,2.30
2018-03-07T14:02:27.678Z,3.33
2018-03-07T14:04:55.657Z,1.80
2018-03-07T14:07:23.186Z,1.80
2018-03-07T14:09:50.870Z,1.83
2018-03-07T14:12:18.473Z,1.80
2018-03-07T14:14:46.011Z,2.90
2018-03-07T14:17:13.501Z,2.30
2018-03-07T14:19:41.518Z,1.90
2018-03-07T14:22:09.019Z,1.90
2018-03-07T14:24:36.516Z,1.90
2018-03-07T14:27:04.814Z,2.30
2018-03-07T14:29:32.334Z,3.50
2018-03-07T14:32:00.635Z,3.20
2018-03-07T14:34:28.210Z,2.70
2018-03-07T14:36:55.877Z,3.23
2018-03-07T14:39:23.554Z,3.47
2018-03-07T14:41:51.875Z,3.73
2018-03-07T14:44:19.548Z,2.13
2018-03-07T14:46:47.809Z,1.83
2018-03-07T14:49:16.070Z,2.00
2018-03-07T14:51:44.421Z,1.80
2018-03-07T14:54:11.940Z,2.40
2018-03-07T14:56:40.213Z,4.37
2018-03-07T14:59:08.465Z,4.33
2018-03-07T15:01:36.043Z,2.13
2018-03-07T15:04:04.368Z,1.70
2018-03-07T15:06:31.872Z,1.40
2018-03-07T15:08:59.426Z,1.33
2018-03-07T15:11:26.954Z,1.50
2018-03-07T15:13:55.352Z,1.40
2018-03-07T15:16:22.908Z,1.10
2018-03-07T15:18:51.353Z,1.30
2018-03-07T15:21:18.898Z,1.20
2018-03-07T15:23:47.378Z,1.40
2018-03-07T15:26:14.957Z,1.37
2018-03-07T15:28:42.445Z,1.50
2018-03-07T15:31:09.960Z,1.30
2018-03-07T15:33:37.467Z,1.20
2018-03-07T15:36:05.064Z,1.20
2018-03-07T15:38:33.476Z,1.50
2018-03-07T15:41:01.096Z,1.20
2018-03-07T15:43:29.451Z,1.40
2018-03-07T15:45:57.153Z,2.33
2018-03-07T15:48:25.625Z,3.43
2018-03-07T15:50:53.939Z,1.70
2018-03-07T15:53:22.241Z,16.73
2018-03-07T15:55:49.775Z,3.97
2018-03-07T15:58:17.337Z,3.40
2018-03-07T16:00:44.848Z,1.33
2018-03-07T16:03:12.335Z,1.30
2018-03-07T16:05:39.914Z,1.33
2018-03-07T16:08:07.405Z,1.17
2018-03-07T16:10:34.904Z,1.20
2018-03-07T16:13:03.215Z,1.43
2018-03-07T16:15:30.754Z,1.20
2018-03-07T16:17:58.345Z,1.00
2018-03-07T16:20:27.014Z,1.20
2018-03-07T16:22:55.701Z,1.10
2018-03-07T16:25:23.261Z,2.70
2018-03-07T16:27:50.773Z,5.27
2018-03-07T16:30:18.467Z,4.67
2018-03-07T16:32:45.996Z,2.90
2018-03-07T16:35:14.272Z,8.60
2018-03-07T16:37:41.756Z,2.13
2018-03-07T16:40:09.272Z,1.50
2018-03-07T16:42:36.956Z,1.70
2018-03-07T16:45:04.499Z,2.20
2018-03-07T16:47:32.194Z,1.40
2018-03-07T16:50:00.614Z,2.97
2018-03-07T16:52:28.353Z,1.90
2018-03-07T16:54:56.030Z,2.63
2018-03-07T16:57:23.685Z,2.30
2018-03-07T16:59:51.195Z,1.60
2018-03-07T17:02:18.857Z,1.30
2018-03-07T17:04:46.401Z,1.70
2018-03-07T17:07:14.661Z,1.53
2018-03-07T17:09:42.181Z,2.30
2018-03-07T17:12:10.571Z,3.60
2018-03-07T17:14:38.079Z,2.00
2018-03-07T17:17:05.561Z,2.20
2018-03-07T17:19:33.227Z,2.00
2018-03-07T17:22:00.833Z,2.30
2018-03-07T17:24:28.869Z,2.47
2018-03-07T17:26:57.367Z,2.70
2018-03-07T17:29:25.257Z,1.80
2018-03-07T17:31:52.810Z,4.47
2018-03-07T17:34:20.556Z,4.07
2018-03-07T17:36:48.331Z,3.13
2018-03-07T17:39:15.858Z,4.20
2018-03-07T17:41:43.360Z,4.90
2018-03-07T17:44:10.878Z,4.47
2018-03-07T17:46:39.127Z,4.37
2018-03-07T17:49:06.626Z,3.73
2018-03-07T17:51:34.949Z,3.97
2018-03-07T17:54:02.898Z,5.33
2018-03-07T17:56:30.540Z,4.00
2018-03-07T17:58:58.223Z,4.33
2018-03-07T18:01:26.394Z,5.33
2018-03-07T18:03:55.409Z,4.27
2018-03-07T18:06:22.952Z,4.53
2018-03-07T18:08:50.465Z,4.70
2018-03-07T18:11:17.985Z,4.93
2018-03-07T18:13:45.470Z,4.50
2018-03-07T18:16:12.953Z,5.70
2018-03-07T18:18:41.214Z,6.23
2018-03-07T18:21:08.700Z,5.37
2018-03-07T18:23:36.253Z,6.63
2018-03-07T18:26:04.560Z,6.83
2018-03-07T18:28:32.140Z,6.97
2018-03-07T18:31:00.423Z,8.10
2018-03-07T18:33:28.445Z,8.00
2018-03-07T18:35:56.950Z,7.40
2018-03-07T18:38:25.020Z,7.80
2018-03-07T18:40:52.546Z,9.23
2018-03-07T18:43:21.048Z,10.27
2018-03-07T18:45:48.829Z,9.87
2018-03-07T18:48:17.616Z,10.53
2018-03-07T18:50:45.161Z,10.80
2018-03-07T18:53:12.656Z,12.27
2018-03-07T18:55:40.170Z,12.70
2018-03-07T18:58:07.676Z,14.20
2018-03-07T19:00:35.175Z,14.97
2018-03-07T19:03:03.466Z,15.60
2018-03-07T19:05:31.785Z,14.57
2018-03-07T19:07:59.484Z,16.13
2018-03-07T19:10:28.215Z,16.20
2018-03-07T19:12:56.390Z,15.87
2018-03-07T19:15:24.466Z,16.80
2018-03-07T19:17:51.984Z,17.03
2018-03-07T19:20:20.281Z,17.50
2018-03-07T19:22:48.600Z,14.80
2018-03-07T19:25:16.141Z,16.03
2018-03-07T19:27:43.649Z,15.77
2018-03-07T19:30:11.185Z,15.87
2018-03-07T19:32:38.681Z,15.13
2018-03-07T19:35:07.030Z,16.53
2018-03-07T19:37:34.613Z,16.57
2018-03-07T19:40:03.552Z,16.17
2018-03-07T19:42:32.121Z,17.77
2018-03-07T19:44:59.796Z,15.43
2018-03-07T19:47:27.633Z,12.03
2018-03-07T19:49:55.531Z,14.37
2018-03-07T19:52:23.354Z,12.63
2018-03-07T19:54:50.971Z,12.40
2018-03-07T19:57:18.540Z,12.20
2018-03-07T19:59:46.053Z,12.73
2018-03-07T20:02:14.320Z,12.30
2018-03-07T20:04:41.847Z,12.73
2018-03-07T20:07:09.339Z,11.57
2018-03-07T20:09:37.625Z,12.73
2018-03-07T20:12:05.909Z,10.63
2018-03-07T20:14:33.689Z,12.07
2018-03-07T20:17:01.340Z,11.93
2018-03-07T20:19:29.423Z,13.50
2018-03-07T20:21:57.802Z,11.67
2018-03-07T20:24:26.798Z,11.37
2018-03-07T20:26:55.609Z,11.97
2018-03-07T20:29:26.219Z,10.47
2018-03-07T20:31:54.906Z,11.03
2018-03-07T20:34:25.308Z,13.17
2018-03-07T20:36:52.924Z,13.27
2018-03-07T20:39:20.493Z,14.87
2018-03-07T20:41:48.085Z,14.80
2018-03-07T20:44:16.373Z,12.73
2018-03-07T20:46:43.866Z,14.73
2018-03-07T20:49:11.379Z,16.83
2018-03-07T20:51:39.643Z,18.03
2018-03-07T20:54:08.026Z,18.80
2018-03-07T20:56:36.281Z,19.53
2018-03-07T20:59:03.855Z,19.40
2018-03-07T21:01:31.880Z,19.13
2018-03-07T21:06:33.594Z,19.10
2018-03-07T21:09:01.229Z,20.13
2018-03-07T21:11:32.351Z,22.13
2018-03-07T21:13:59.921Z,21.17
2018-03-07T21:16:27.789Z,23.23
2018-03-07T21:18:55.933Z,21.50
2018-03-07T21:21:24.024Z,21.80
2018-03-07T21:23:51.979Z,22.33
2018-03-07T21:26:19.508Z,21.53
2018-03-07T21:28:47.006Z,21.77
2018-03-07T21:31:14.504Z,21.90
2018-03-07T21:33:42.011Z,22.60
2018-03-07T21:36:09.502Z,21.43
2018-03-07T21:38:37.033Z,23.17
2018-03-07T21:41:04.713Z,25.77
2018-03-07T21:43:32.352Z,26.13
2018-03-07T21:46:00.150Z,25.87
2018-03-07T21:48:27.806Z,26.07
2018-03-07T21:50:55.587Z,22.30
2018-03-07T21:53:25.018Z,25.83
2018-03-07T21:55:53.352Z,27.90
2018-03-07T21:58:20.907Z,24.43
2018-03-07T22:00:48.431Z,24.73
2018-03-07T22:03:16.695Z,24.80
2018-03-07T22:05:44.220Z,24.43
2018-03-07T22:08:11.714Z,24.00
2018-03-07T22:10:39.210Z,24.87
2018-03-07T22:13:06.749Z,23.23
2018-03-07T22:15:35.059Z,22.97
2018-03-07T22:18:03.114Z,23.03
2018-03-07T22:20:30.707Z,22.80
2018-03-07T22:22:58.868Z,21.33
2018-03-07T22:25:26.616Z,20.60
2018-03-07T22:27:55.558Z,20.00
2018-03-07T22:30:24.412Z,19.90
2018-03-07T22:32:52.754Z,19.80
2018-03-07T22:35:20.291Z,20.10
2018-03-07T22:37:47.779Z,20.37
2018-03-07T22:40:16.061Z,19.67
2018-03-07T22:42:44.316Z,19.00
2018-03-07T22:45:12.589Z,18.57
2018-03-07T22:47:40.085Z,14.73
2018-03-07T22:50:07.600Z,15.23
2018-03-07T22:52:35.292Z,16.00
2018-03-07T22:55:02.896Z,15.87
2018-03-07T22:57:30.545Z,13.53
2018-03-07T22:59:58.364Z,15.03
2018-03-07T23:02:26.991Z,13.73
2018-03-07T23:04:54.862Z,13.10
2018-03-07T23:07:22.530Z,13.07
2018-03-07T23:09:50.958Z,11.40
2018-03-07T23:12:18.477Z,12.23
2018-03-07T23:14:46.040Z,10.63
2018-03-07T23:17:13.498Z,9.47
2018-03-07T23:19:41.009Z,10.33
2018-03-07T23:22:09.269Z,9.10
2018-03-07T23:24:36.820Z,9.40
2018-03-07T23:27:04.359Z,8.13
2018-03-07T23:29:32.233Z,8.13
2018-03-07T23:31:59.878Z,8.67
2018-03-07T23:34:28.274Z,9.17
2018-03-07T23:36:56.169Z,9.77
2018-03-07T23:39:23.817Z,9.77
2018-03-07T23:41:51.345Z,9.13
2018-03-07T23:44:18.838Z,8.33
2018-03-07T23:46:47.138Z,8.67
2018-03-07T23:49:15.393Z,8.60
2018-03-07T23:51:42.897Z,8.57
2018-03-07T23:54:10.392Z,9.10
2018-03-07T23:56:37.900Z,9.23
2018-03-07T23:59:05.525Z,8.53
